サンサルバドル の空港の天気 - METARとTAF

エルサルバドル国際空港 ( MSLP / SAL ) - エルサルバドル サンサルバドル
飛行場実況気象(Metar)
観測時間07/16 10:50 CST (07/16 16:50 UTC)
風向・風速北北東 3m/s
視程10km以上
天気現象
なし
気温33℃
湿度56%
気圧1012hPa
METARMSLP 161650Z 02006KT 340V050 CAVOK 33/23 Q1012 A2988 NOSIG
過去の天気等 Google飛行場航空写真 Wunderground天気予報

過去48時間のMETAR

飛行場予報(TAF)
発表時間: 7/16 03:25 CST (7/16 09:25 UTC)
予報対象時間: 16日6時 CST ~ 17日6時 CST
風向・風速北東 3m/s
視程10km以上
なし
16日12時 CST から
風向・風速南西 4m/s
視程10km以上
全天の4割程度の雲 雲底高度 820m
少しの積乱雲 雲底高度 1220m
16日18時 CST から
風向・風速不定 2m/s
16日22時 CST ~ 16日24時 CST に一時的に
風向・風速東北東 4m/s
視程7000m
天気現象雷雨
全天の8割程度の雲 雲底高度 700m
全天の4割程度の積乱雲 雲底高度 1010m
17日0時 CST から
風向・風速北北東 2m/s
視程10km以上
全天の4割程度の雲 雲底高度 610m
全天の8割程度の雲 雲底高度 1830m
MSLP 160925Z 1612/1712 04006KT CAVOK TX33/1618Z TN23/1612Z
FM161800 23008KT 9999 SCT027 FEW040CB
FM170000 VRB03KT
TEMPO 1704/1706 07008KT 7000 TSRA BKN023 SCT033CB
FM170600 03004KT 9999 SCT020 BKN060